Time;durP1;ratioP1;P1;durP2;ratioP2;P2;SDS_P1;SDS_P2;PMS_P1;PMS_P2;Temp;Humidity;BMP_temperature;BMP_pressure;BME280_temperature;BME280_humidity;BME280_pressure;Samples;Min_cycle;Max_cycle;Signal;HPM_P1;HPM_P2
2022/04/22 00:02:32;;;;;;;20.20;13.90;;;22.70;57.40;;;;;;220418;1267;22815;-60
2022/04/22 00:07:35;;;;;;;19.80;13.50;;;22.70;57.20;;;;;;220849;1267;22650;-60
2022/04/22 00:12:39;;;;;;;23.50;14.50;;;22.60;57.50;;;;;;220724;1267;24268;-61
2022/04/22 00:17:43;;;;;;;20.90;13.90;;;22.60;57.20;;;;;;220456;1267;22620;-62
2022/04/22 00:22:47;;;;;;;20.20;14.60;;;22.60;56.80;;;;;;220380;1268;22638;-62
2022/04/22 00:27:51;;;;;;;21.30;14.60;;;22.50;57.10;;;;;;220483;1266;22580;-59
2022/04/22 00:32:54;;;;;;;23.30;14.80;;;22.60;56.80;;;;;;220430;1267;22720;-60
2022/04/22 00:37:59;;;;;;;21.70;14.70;;;22.50;56.80;;;;;;220693;1267;24406;-61
2022/04/22 00:43:19;;;;;;;21.90;14.70;;;22.50;56.50;;;;;;220685;1267;23021;-62
2022/04/22 00:48:23;;;;;;;22.70;15.60;;;22.50;56.70;;;;;;220484;1267;22534;-58
2022/04/22 00:53:27;;;;;;;22.10;15.00;;;22.50;56.60;;;;;;220410;1267;25532;-66
2022/04/22 00:58:32;;;;;;;20.50;14.00;;;22.40;57.00;;;;;;220360;1267;23315;-59
2022/04/22 01:03:35;;;;;;;22.60;15.00;;;22.40;56.30;;;;;;220856;1268;22538;-61
2022/04/22 01:14:06;;;;;;;21.00;14.40;;;22.40;56.40;;;;;;219946;1267;25248;-61
2022/04/22 01:19:10;;;;;;;17.70;13.30;;;22.30;56.70;;;;;;220148;1267;25397;-60
2022/04/22 01:24:13;;;;;;;19.90;13.60;;;22.30;56.10;;;;;;220952;1267;22550;-60
2022/04/22 01:29:17;;;;;;;20.20;13.90;;;22.30;56.10;;;;;;220706;1267;25349;-62
2022/04/22 01:34:21;;;;;;;20.60;14.40;;;22.20;56.30;;;;;;220644;1266;22541;-61
2022/04/22 01:39:25;;;;;;;20.10;13.90;;;22.20;55.90;;;;;;220393;1267;26602;-62
2022/04/22 01:44:37;;;;;;;20.30;13.70;;;22.20;55.90;;;;;;220917;1267;22547;-60
2022/04/22 01:49:41;;;;;;;17.80;13.30;;;22.20;55.90;;;;;;220890;1267;22550;-58
2022/04/22 01:54:52;;;;;;;18.80;13.40;;;22.20;55.80;;;;;;220578;1267;23480;-61
2022/04/22 01:59:58;;;;;;;;;;;22.10;56.00;;;;;;220220;1268;23891;-60
2022/04/22 02:05:04;;;;;;;20.40;13.80;;;22.30;56.30;;;;;;220944;1267;24303;-61
2022/04/22 02:10:08;;;;;;;18.10;13.70;;;22.50;55.40;;;;;;220252;1270;24330;-60
2022/04/22 02:15:15;;;;;;;20.20;13.70;;;22.70;54.80;;;;;;220433;1267;22697;-60
2022/04/22 02:20:18;;;;;;;18.00;12.20;;;22.80;54.60;;;;;;220788;1267;22548;-63
2022/04/22 02:25:22;;;;;;;20.60;12.60;;;23.00;54.10;;;;;;220036;1267;22534;-61
2022/04/22 02:30:25;;;;;;;21.40;14.30;;;23.00;54.00;;;;;;220623;1265;24189;-60
2022/04/22 02:35:29;;;;;;;17.90;12.30;;;23.10;53.80;;;;;;220473;1265;22588;-61
2022/04/22 02:45:55;;;;;;;20.70;13.30;;;23.30;53.20;;;;;;220471;1267;22707;-59
2022/04/22 02:50:59;;;;;;;18.00;12.10;;;23.40;53.20;;;;;;220975;1265;24217;-61
2022/04/22 02:56:05;;;;;;;18.40;12.40;;;23.50;52.80;;;;;;220865;1268;24361;-61
2022/04/22 03:01:09;;;;;;;16.90;12.20;;;23.60;52.70;;;;;;220736;1268;22558;-62
2022/04/22 03:06:13;;;;;;;19.20;13.10;;;23.50;52.70;;;;;;220517;1265;25648;-61
2022/04/22 03:11:21;;;;;;;19.60;13.30;;;23.50;52.60;;;;;;220981;1265;24214;-61
2022/04/22 03:16:26;;;;;;;17.50;12.50;;;23.50;52.60;;;;;;220746;1267;23583;-61
2022/04/22 03:21:30;;;;;;;17.50;12.50;;;23.40;52.60;;;;;;220491;1267;22558;-60
2022/04/22 03:26:34;;;;;;;17.60;12.40;;;23.40;52.50;;;;;;220337;1267;22846;-60
2022/04/22 03:31:38;;;;;;;17.80;12.30;;;23.40;52.60;;;;;;220366;1270;22778;-62
2022/04/22 03:36:41;;;;;;;17.60;12.90;;;23.30;52.50;;;;;;220542;1267;22717;-59
2022/04/22 03:41:45;;;;;;;18.60;12.00;;;23.30;52.70;;;;;;220475;1267;22545;-60
2022/04/22 03:46:52;;;;;;;16.40;12.20;;;23.30;52.60;;;;;;220384;1267;22542;-61
2022/04/22 03:51:56;;;;;;;18.20;12.30;;;23.30;52.70;;;;;;220680;1267;24437;-61
2022/04/22 04:02:25;;;;;;;18.00;12.10;;;23.30;52.60;;;;;;220413;1267;24303;-60
2022/04/22 04:07:28;;;;;;;16.60;11.30;;;23.30;52.10;;;;;;220444;1267;25557;-61
2022/04/22 04:17:56;;;;;;;18.60;12.90;;;23.30;52.00;;;;;;220748;1267;23575;-59
2022/04/22 04:23:14;;;;;;;19.50;13.80;;;23.30;52.00;;;;;;220159;1267;589920;-61
2022/04/22 04:28:23;;;;;;;18.60;13.00;;;23.30;51.80;;;;;;220520;1267;22765;-61
2022/04/22 04:33:26;;;;;;;17.40;12.70;;;23.40;51.60;;;;;;220596;1267;22587;-62
2022/04/22 04:38:31;;;;;;;18.40;12.70;;;23.50;51.40;;;;;;220715;1267;22816;-60
2022/04/22 04:43:38;;;;;;;17.40;12.90;;;23.50;51.10;;;;;;220279;1267;24419;-61
2022/04/22 04:48:41;;;;;;;17.60;13.10;;;23.60;50.80;;;;;;220216;1267;26475;-61
2022/04/22 04:53:45;;;;;;;19.80;13.00;;;23.70;50.60;;;;;;220328;1267;22911;-58
2022/04/22 04:58:49;;;;;;;17.90;12.60;;;23.70;50.40;;;;;;220352;1267;25553;-62
2022/04/22 05:03:52;;;;;;;17.90;12.60;;;23.70;50.30;;;;;;220761;1267;25927;-61
2022/04/22 05:08:57;;;;;;;16.70;11.90;;;23.70;50.60;;;;;;220255;1267;22698;-61
2022/04/22 05:14:01;;;;;;;16.30;11.60;;;23.80;50.60;;;;;;220393;1267;25477;-61
2022/04/22 05:19:08;;;;;;;17.30;12.10;;;23.70;50.70;;;;;;220306;1267;25614;-73
2022/04/22 05:24:15;;;;;;;17.90;11.40;;;23.70;50.80;;;;;;220363;1267;24422;-71
2022/04/22 05:34:41;;;;;;;18.10;13.20;;;23.60;50.90;;;;;;220026;1268;22712;-71
2022/04/22 05:39:46;;;;;;;17.20;13.40;;;23.50;51.20;;;;;;220536;1270;24309;-75
2022/04/22 05:44:54;;;;;;;18.80;11.90;;;23.40;51.70;;;;;;220489;1270;25595;-72
2022/04/22 05:49:58;;;;;;;19.30;11.50;;;23.40;52.30;;;;;;220277;1270;23453;-72
2022/04/22 05:55:04;;;;;;;21.30;12.90;;;23.30;52.20;;;;;;220580;1270;22629;-74
2022/04/22 06:00:12;;;;;;;17.30;11.50;;;23.20;52.60;;;;;;220539;1269;22555;-73
2022/04/22 06:05:17;;;;;;;19.70;12.10;;;23.10;52.50;;;;;;220301;1270;24293;-72
2022/04/22 06:10:33;;;;;;;18.60;11.80;;;23.10;52.50;;;;;;220155;1270;22555;-77
2022/04/22 06:15:37;;;;;;;20.30;11.30;;;23.00;52.40;;;;;;220343;1268;22579;-61
2022/04/22 06:20:41;;;;;;;20.90;11.80;;;23.00;52.30;;;;;;220421;1267;25911;-69
2022/04/22 06:25:48;;;;;;;20.50;11.70;;;23.00;52.30;;;;;;220634;1267;24279;-55
2022/04/22 06:30:56;;;;;;;20.50;12.40;;;23.00;52.30;;;;;;220584;1267;24444;-54
2022/04/22 06:36:03;;;;;;;21.70;11.70;;;23.00;52.40;;;;;;220664;1268;24929;-53
2022/04/22 06:46:29;;;;;;;20.60;12.10;;;22.90;52.40;;;;;;220658;1267;22843;-53
2022/04/22 06:51:33;;;;;;;19.10;12.20;;;22.90;52.20;;;;;;220723;1267;24422;-56
2022/04/22 06:56:40;;;;;;;20.90;12.70;;;22.90;52.10;;;;;;220607;1267;24424;-53
2022/04/22 07:01:43;;;;;;;17.50;11.10;;;22.90;52.00;;;;;;220524;1267;23908;-53
2022/04/22 07:06:47;;;;;;;17.30;11.70;;;22.90;52.10;;;;;;220442;1268;22527;-53
2022/04/22 07:11:55;;;;;;;21.60;12.50;;;22.90;51.80;;;;;;220347;1267;24214;-54
2022/04/22 07:17:00;;;;;;;21.60;12.70;;;22.90;51.60;;;;;;220040;1270;22653;-56
2022/04/22 07:22:05;;;;;;;26.60;13.00;;;22.80;51.50;;;;;;220693;1267;22731;-56
2022/04/22 07:27:10;;;;;;;18.60;11.90;;;22.80;51.50;;;;;;220528;1268;24409;-58
2022/04/22 07:32:18;;;;;;;14.00;10.80;;;22.80;51.50;;;;;;220281;1267;25679;-57
2022/04/22 07:37:25;;;;;;;19.00;12.10;;;22.80;51.60;;;;;;220454;1267;22553;-59
2022/04/22 07:42:29;;;;;;;17.70;11.20;;;22.80;51.60;;;;;;220758;1267;22532;-59
2022/04/22 07:47:34;;;;;;;21.70;12.30;;;22.80;52.00;;;;;;220885;1267;22580;-58
2022/04/22 07:52:38;;;;;;;22.00;11.90;;;22.80;52.00;;;;;;220421;1267;22612;-57
2022/04/22 07:57:42;;;;;;;16.00;11.40;;;22.70;52.00;;;;;;220461;1267;26598;-55
2022/04/22 08:02:51;;;;;;;17.00;10.80;;;22.60;52.20;;;;;;220327;1268;22510;-58
2022/04/22 08:07:59;;;;;;;15.50;11.40;;;22.60;51.90;;;;;;220476;1267;22607;-54
2022/04/22 08:13:05;;;;;;;16.00;11.30;;;22.60;51.80;;;;;;220480;1268;25396;-56
2022/04/22 08:18:10;;;;;;;16.60;10.40;;;22.60;51.80;;;;;;220675;1267;25553;-57
2022/04/22 08:23:13;;;;;;;16.20;11.50;;;22.60;51.70;;;;;;220442;1265;22593;-57
2022/04/22 08:28:17;;;;;;;17.20;10.70;;;22.60;51.80;;;;;;220676;1268;23030;-57
2022/04/22 08:33:21;;;;;;;14.20;9.40;;;22.60;51.60;;;;;;220637;1268;25453;-58
2022/04/22 08:38:27;;;;;;;13.50;10.10;;;22.50;51.70;;;;;;220682;1268;25450;-57
2022/04/22 08:43:33;;;;;;;13.80;10.30;;;22.50;51.60;;;;;;220576;1267;24249;-58
2022/04/22 08:54:09;;;;;;;13.40;9.10;;;22.50;50.90;;;;;;220582;1267;24248;-57
2022/04/22 08:59:17;;;;;;;11.90;9.00;;;22.50;51.30;;;;;;220622;1267;26488;-58
2022/04/22 09:04:26;;;;;;;12.90;9.20;;;22.50;51.20;;;;;;220890;1267;25338;-57
2022/04/22 09:09:31;;;;;;;13.80;8.80;;;22.50;50.90;;;;;;220789;1270;25329;-58
2022/04/22 09:14:48;;;;;;;12.30;8.40;;;22.50;51.50;;;;;;220319;1267;25238;-57
2022/04/22 09:19:53;;;;;;;10.60;8.20;;;22.50;51.10;;;;;;220674;1268;22567;-58
2022/04/22 09:24:59;;;;;;;13.40;8.30;;;22.50;51.10;;;;;;220952;1268;25690;-57
2022/04/22 09:30:09;;;;;;;12.10;8.40;;;22.50;50.90;;;;;;220632;1267;25440;-59
2022/04/22 09:35:17;;;;;;;11.00;7.70;;;22.50;51.40;;;;;;220816;1268;24461;-54
2022/04/22 09:45:58;;;;;;;9.50;7.30;;;22.40;50.70;;;;;;220311;1267;24299;-57
2022/04/22 09:51:02;;;;;;;12.50;7.60;;;22.40;51.20;;;;;;220617;1268;24208;-58
2022/04/22 09:56:08;;;;;;;10.20;7.20;;;22.40;50.50;;;;;;220427;1270;22893;-59
2022/04/22 10:01:12;;;;;;;10.60;7.20;;;22.50;50.40;;;;;;220560;1270;24266;-61
2022/04/22 10:06:18;;;;;;;8.90;6.80;;;22.50;50.50;;;;;;220824;1267;23136;-60
2022/04/22 10:11:24;;;;;;;11.00;6.90;;;22.40;51.60;;;;;;220786;1268;23015;-58
2022/04/22 10:16:27;;;;;;;12.30;6.90;;;22.40;51.60;;;;;;220647;1269;24413;-57
2022/04/22 10:21:32;;;;;;;8.90;6.20;;;22.40;52.00;;;;;;220289;1268;24952;-58
2022/04/22 10:26:36;;;;;;;8.30;6.30;;;22.40;52.20;;;;;;220970;1268;24353;-57
2022/04/22 10:31:40;;;;;;;8.90;6.80;;;22.40;52.80;;;;;;220660;1268;24241;-57
2022/04/22 10:36:44;;;;;;;10.00;6.30;;;22.40;52.90;;;;;;220650;1267;22703;-57
2022/04/22 10:41:49;;;;;;;8.40;6.00;;;22.30;53.10;;;;;;220607;1267;23050;-58
2022/04/22 10:52:21;;;;;;;8.20;6.00;;;22.30;53.50;;;;;;220666;1268;22667;-57
2022/04/22 10:57:31;;;;;;;7.80;6.00;;;22.30;53.80;;;;;;220998;1268;22675;-58
2022/04/22 11:02:42;;;;;;;8.60;5.90;;;22.40;53.80;;;;;;220737;1269;25347;-57
2022/04/22 11:07:58;;;;;;;8.80;5.80;;;22.60;54.80;;;;;;220538;1268;22535;-57
2022/04/22 11:13:29;;;;;;;7.00;5.40;;;22.90;54.30;;;;;;220431;1268;24315;-55
2022/04/22 11:18:35;;;;;;;7.20;5.30;;;23.00;54.20;;;;;;220472;1268;22558;-58
2022/04/22 11:23:45;;;;;;;7.60;5.30;;;23.10;53.80;;;;;;220722;1268;24252;-56
2022/04/22 11:28:49;;;;;;;7.70;5.60;;;23.20;53.40;;;;;;220609;1270;22878;-57
2022/04/22 11:34:05;;;;;;;7.60;5.40;;;23.40;53.80;;;;;;220803;1269;23910;-60
2022/04/22 11:39:14;;;;;;;7.20;5.30;;;23.50;53.90;;;;;;220707;1268;25415;-56
2022/04/22 11:44:23;;;;;;;10.80;5.90;;;23.50;54.70;;;;;;220739;1268;22557;-57
2022/04/22 11:49:33;;;;;;;9.20;5.90;;;23.50;57.10;;;;;;220683;1268;22537;-56
2022/04/22 11:54:42;;;;;;;10.50;5.70;;;23.50;55.40;;;;;;220367;1268;22844;-57
2022/04/22 12:05:33;;;;;;;6.80;5.00;;;23.40;56.30;;;;;;220742;1268;24287;-57
2022/04/22 12:11:02;;;;;;;6.40;4.70;;;23.40;55.60;;;;;;220522;1268;22759;-57
2022/04/22 12:16:25;;;;;;;8.00;5.20;;;23.30;55.50;;;;;;220311;1268;24263;-58
2022/04/22 12:22:00;;;;;;;8.70;5.00;;;23.20;56.70;;;;;;220218;1268;23327;-57
2022/04/22 12:27:21;;;;;;;8.50;5.60;;;23.20;56.00;;;;;;220785;1267;25753;-57
2022/04/22 12:32:32;;;;;;;5.30;4.60;;;23.20;56.10;;;;;;220875;1268;23944;-56
2022/04/22 12:37:52;;;;;;;7.50;5.30;;;23.30;56.70;;;;;;220704;1267;22760;-55
2022/04/22 12:43:36;;;;;;;7.50;5.20;;;23.30;55.80;;;;;;220551;1268;24259;-57
2022/04/22 12:54:16;;;;;;;11.50;5.40;;;23.30;56.50;;;;;;220684;1268;25241;-58
2022/04/22 12:59:41;;;;;;;7.60;5.40;;;23.30;55.80;;;;;;220599;1268;22557;-57
2022/04/22 13:04:56;;;;;;;9.10;5.20;;;23.30;55.60;;;;;;220613;1268;22652;-57
2022/04/22 13:10:00;;;;;;;8.10;5.50;;;23.40;56.30;;;;;;220910;1268;25648;-58
2022/04/22 13:15:14;;;;;;;14.10;5.40;;;23.40;56.50;;;;;;220123;1268;22640;-57
2022/04/22 13:20:21;;;;;;;9.50;5.50;;;23.40;56.50;;;;;;220256;1268;24258;-57
2022/04/22 13:25:25;;;;;;;8.60;5.90;;;23.30;55.90;;;;;;220364;1268;24438;-57
2022/04/22 13:30:33;;;;;;;8.20;5.50;;;23.30;55.70;;;;;;220518;1268;25500;-56
2022/04/22 13:35:37;;;;;;;8.20;5.00;;;23.30;56.30;;;;;;220269;1267;28184;-56
2022/04/22 13:40:41;;;;;;;9.00;5.40;;;23.20;56.50;;;;;;220338;1267;23143;-57
2022/04/22 13:56:35;;;;;;;7.40;5.70;;;23.20;55.80;;;;;;221237;1268;23062;-56
2022/04/22 14:01:53;;;;;;;11.50;5.80;;;23.10;56.10;;;;;;220050;1270;25650;-57
2022/04/22 14:07:09;;;;;;;9.00;5.80;;;23.00;56.20;;;;;;220075;1268;24356;-56
2022/04/22 14:12:40;;;;;;;6.90;5.10;;;23.00;55.10;;;;;;220897;1268;22565;-58
2022/04/22 14:17:54;;;;;;;7.50;5.50;;;23.00;55.80;;;;;;220666;1267;25248;-55
2022/04/22 14:23:21;;;;;;;7.70;5.50;;;23.00;55.70;;;;;;220932;1268;25240;-55
2022/04/22 14:28:29;;;;;;;7.50;5.80;;;23.00;55.80;;;;;;220838;1268;22735;-58
2022/04/22 14:33:37;;;;;;;7.60;5.50;;;22.90;55.50;;;;;;220545;1268;24379;-57
2022/04/22 14:38:43;;;;;;;7.80;5.70;;;22.90;55.70;;;;;;220705;1268;22803;-59
2022/04/22 14:43:50;;;;;;;6.10;5.40;;;22.80;55.00;;;;;;223364;1267;23104;-57
2022/04/22 14:48:54;;;;;;;6.90;5.40;;;22.70;54.60;;;;;;220840;1268;22538;-57
2022/04/22 14:53:58;;;;;;;6.80;5.80;;;22.80;54.40;;;;;;220727;1268;24405;-57
2022/04/22 14:59:10;;;;;;;6.40;5.50;;;22.80;54.00;;;;;;220534;1267;24224;-59
2022/04/22 15:04:15;;;;;;;5.80;5.20;;;22.70;54.00;;;;;;220439;1268;25355;-58
2022/04/22 15:09:19;;;;;;;7.90;5.40;;;22.70;54.10;;;;;;220297;1267;22620;-57
2022/04/22 15:14:23;;;;;;;7.70;4.80;;;22.60;53.60;;;;;;220384;1268;24412;-56
2022/04/22 15:24:49;;;;;;;6.00;5.10;;;22.60;53.60;;;;;;220239;1267;22647;-58
2022/04/22 15:29:53;;;;;;;7.00;5.30;;;22.60;53.60;;;;;;220763;1267;25247;-57
2022/04/22 15:34:58;;;;;;;5.40;4.40;;;22.60;53.90;;;;;;220981;1267;22605;-57
2022/04/22 15:40:03;;;;;;;6.70;4.90;;;22.60;53.70;;;;;;220353;1268;22559;-56
2022/04/22 15:45:07;;;;;;;6.00;4.90;;;22.50;53.50;;;;;;220776;1268;23166;-58
2022/04/22 15:50:10;;;;;;;6.80;4.90;;;22.50;53.50;;;;;;220875;1267;24666;-57
2022/04/22 15:55:14;;;;;;;6.10;5.20;;;22.50;53.30;;;;;;220565;1268;23211;-58
2022/04/22 16:00:18;;;;;;;6.70;5.40;;;22.50;53.40;;;;;;220591;1268;22625;-57
2022/04/22 16:05:22;;;;;;;6.20;5.00;;;22.50;53.40;;;;;;220687;1268;23921;-57
2022/04/22 16:10:26;;;;;;;6.80;4.80;;;22.60;53.80;;;;;;220368;1267;24409;-55
2022/04/22 16:15:33;;;;;;;6.40;4.70;;;22.70;52.70;;;;;;220729;1268;22658;-58
2022/04/22 16:20:40;;;;;;;5.70;4.90;;;23.00;52.30;;;;;;220338;1267;376896;-58
2022/04/22 16:25:50;;;;;;;5.90;4.50;;;23.20;51.70;;;;;;220659;1267;25236;-58
2022/04/22 16:30:55;;;;;;;5.40;4.20;;;23.30;51.40;;;;;;220294;1266;22578;-56
2022/04/22 16:36:00;;;;;;;6.20;4.50;;;23.50;51.30;;;;;;220463;1267;22584;-56
2022/04/22 16:41:08;;;;;;;6.20;4.70;;;23.60;51.00;;;;;;220917;1268;22742;-57
2022/04/22 16:46:13;;;;;;;5.60;4.30;;;23.70;50.50;;;;;;220383;1267;24315;-58
2022/04/22 16:51:17;;;;;;;5.80;4.20;;;23.70;50.60;;;;;;220566;1267;25600;-56
2022/04/22 16:56:23;;;;;;;5.80;4.40;;;23.70;50.50;;;;;;220785;1267;22557;-57
2022/04/22 17:01:30;;;;;;;5.30;4.30;;;23.60;50.30;;;;;;220634;1268;22576;-57
2022/04/22 17:06:33;;;;;;;5.50;4.10;;;23.60;50.40;;;;;;220708;1267;23071;-57
2022/04/22 17:11:38;;;;;;;5.50;4.10;;;23.50;50.60;;;;;;220078;1268;25352;-58
2022/04/22 17:27:30;;;;;;;5.00;4.00;;;23.30;50.40;;;;;;220784;1267;22574;-59
2022/04/22 17:32:34;;;;;;;4.80;3.90;;;23.30;50.30;;;;;;220888;1268;23953;-58
2022/04/22 17:37:41;;;;;;;5.40;4.20;;;23.30;50.80;;;;;;220529;1267;24286;-57
2022/04/22 17:42:45;;;;;;;5.80;3.70;;;23.30;50.30;;;;;;220714;1267;25104;-57
2022/04/22 17:47:48;;;;;;;5.10;4.20;;;23.30;50.10;;;;;;220677;1268;22615;-56
2022/04/22 17:52:56;;;;;;;5.70;4.30;;;23.20;50.30;;;;;;220855;1267;25588;-57
2022/04/22 17:58:03;;;;;;;6.40;4.20;;;23.20;50.30;;;;;;220744;1267;25499;-57
2022/04/22 18:03:08;;;;;;;7.10;4.40;;;23.30;50.30;;;;;;220423;1267;22627;-57
2022/04/22 18:08:12;;;;;;;5.60;4.10;;;23.20;49.50;;;;;;220462;1267;24257;-58
2022/04/22 18:13:17;;;;;;;4.90;4.00;;;23.30;50.40;;;;;;220453;1268;22702;-57
2022/04/22 18:18:23;;;;;;;5.70;4.20;;;23.30;49.90;;;;;;220930;1267;25286;-56
2022/04/22 18:23:27;;;;;;;6.80;4.30;;;23.30;49.80;;;;;;220735;1268;22694;-58
2022/04/22 18:28:32;;;;;;;5.90;4.50;;;23.20;49.80;;;;;;221019;1267;25404;-57
2022/04/22 18:33:38;;;;;;;5.50;4.50;;;23.30;50.00;;;;;;220768;1267;25615;-56
2022/04/22 18:38:42;;;;;;;6.00;4.70;;;23.30;49.50;;;;;;220049;1268;22700;-61
2022/04/22 18:43:49;;;;;;;10.20;4.30;;;23.30;49.30;;;;;;220510;1267;24209;-58
2022/04/22 18:48:53;;;;;;;8.20;4.20;;;23.30;49.00;;;;;;220699;1268;22569;-58
2022/04/22 18:54:02;;;;;;;8.90;4.90;;;23.30;49.10;;;;;;220711;1267;25392;-57
2022/04/22 18:59:09;;;;;;;6.80;4.80;;;23.30;48.70;;;;;;220780;1267;22554;-58
2022/04/22 19:04:16;;;;;;;10.40;5.20;;;23.40;49.30;;;;;;220729;1267;25418;-57
2022/04/22 19:09:27;;;;;;;9.00;4.80;;;23.40;49.60;;;;;;220193;1267;26500;-57
2022/04/22 19:14:36;;;;;;;8.60;5.30;;;23.40;49.50;;;;;;220448;1266;22788;-58
2022/04/22 19:19:40;;;;;;;7.40;5.00;;;23.40;49.60;;;;;;220388;1267;25188;-58
2022/04/22 19:24:47;;;;;;;8.70;4.80;;;23.40;49.30;;;;;;219990;1267;22546;-57
2022/04/22 19:29:51;;;;;;;8.60;5.20;;;23.50;49.10;;;;;;220179;1267;24263;-56
2022/04/22 19:34:55;;;;;;;11.60;5.80;;;23.40;48.90;;;;;;220370;1267;22842;-59
2022/04/22 19:45:25;;;;;;;9.90;6.40;;;23.40;48.90;;;;;;219991;1267;24377;-56
2022/04/22 19:50:31;;;;;;;9.60;6.50;;;23.50;48.90;;;;;;220656;1267;22537;-58
2022/04/22 19:55:35;;;;;;;10.10;6.40;;;23.50;48.80;;;;;;220123;1267;22626;-56
2022/04/22 20:00:43;;;;;;;10.80;6.90;;;23.50;48.80;;;;;;220184;1267;22692;-56
2022/04/22 20:05:52;;;;;;;11.50;6.70;;;23.40;48.60;;;;;;220354;1267;24361;-58
2022/04/22 20:11:04;;;;;;;10.70;7.30;;;23.50;48.60;;;;;;220246;1267;22583;-58
2022/04/22 20:16:20;;;;;;;12.30;7.60;;;23.50;48.50;;;;;;220215;1267;25130;-59
2022/04/22 20:21:39;;;;;;;11.50;7.70;;;23.50;48.80;;;;;;220308;1267;24300;-60
2022/04/22 20:26:46;;;;;;;10.00;7.80;;;23.60;48.20;;;;;;220322;1268;22867;-58
2022/04/22 20:31:50;;;;;;;10.30;7.20;;;23.70;48.10;;;;;;220422;1267;24308;-57
2022/04/22 20:42:42;;;;;;;9.90;7.20;;;23.90;47.50;;;;;;219948;1268;24423;-58
2022/04/22 20:47:47;;;;;;;10.80;7.30;;;24.00;47.10;;;;;;220181;1267;22533;-55
2022/04/22 20:58:21;;;;;;;12.50;8.30;;;23.90;49.00;;;;;;220250;1267;24281;-57
2022/04/22 21:03:29;;;;;;;10.70;7.20;;;23.70;50.50;;;;;;220329;1267;24223;-59
2022/04/22 21:08:38;;;;;;;14.90;9.00;;;23.50;52.10;;;;;;220370;1265;26021;-58
2022/04/22 21:13:44;;;;;;;14.30;8.30;;;23.40;52.20;;;;;;220298;1267;27083;-55
2022/04/22 21:18:50;;;;;;;10.70;7.30;;;23.20;54.10;;;;;;220465;1266;25613;-54
2022/04/22 21:23:55;;;;;;;16.70;7.90;;;23.10;55.10;;;;;;220398;1267;25986;-56
2022/04/22 21:28:59;;;;;;;18.60;8.30;;;23.10;54.60;;;;;;220448;1267;25531;-53
2022/04/22 21:34:04;;;;;;;16.50;8.40;;;23.00;56.00;;;;;;220290;1267;22808;-58
2022/04/22 21:39:08;;;;;;;14.50;7.60;;;22.90;58.80;;;;;;220516;1265;22607;-49
2022/04/22 21:44:20;;;;;;;14.80;8.10;;;22.90;57.80;;;;;;220074;1267;22561;-52
2022/04/22 21:49:31;;;;;;;14.80;7.20;;;22.80;58.90;;;;;;220649;1267;22541;-55
2022/04/22 21:54:49;;;;;;;15.90;8.00;;;22.70;58.20;;;;;;220304;1267;25261;-49
2022/04/22 22:00:14;;;;;;;16.20;7.50;;;22.70;60.00;;;;;;220771;1267;25355;-51
2022/04/22 22:05:20;;;;;;;14.10;7.10;;;22.70;58.50;;;;;;220566;1268;26664;-53
2022/04/22 22:10:24;;;;;;;12.50;7.20;;;22.70;58.90;;;;;;220688;1267;25294;-51
2022/04/22 22:15:28;;;;;;;13.70;7.50;;;22.60;58.80;;;;;;220503;1267;22538;-55
2022/04/22 22:20:32;;;;;;;10.30;6.80;;;22.60;58.90;;;;;;220629;1267;22548;-51
2022/04/22 22:25:36;;;;;;;10.10;6.60;;;22.60;58.90;;;;;;220266;1267;22539;-53
2022/04/22 22:30:46;;;;;;;10.50;7.00;;;22.50;59.70;;;;;;220428;1268;24463;-53
2022/04/22 22:35:52;;;;;;;10.50;6.70;;;22.50;59.20;;;;;;220816;1267;25205;-54
2022/04/22 22:41:00;;;;;;;13.40;7.40;;;22.50;59.30;;;;;;220692;1267;25365;-53
2022/04/22 22:46:04;;;;;;;11.90;7.00;;;22.50;59.50;;;;;;220660;1267;24410;-54
2022/04/22 22:51:08;;;;;;;11.10;6.20;;;22.40;59.50;;;;;;220640;1267;22693;-53
2022/04/22 22:56:20;;;;;;;11.30;6.30;;;22.40;59.60;;;;;;220716;1267;24300;-52
2022/04/22 23:01:26;;;;;;;12.40;6.70;;;22.40;59.60;;;;;;220722;1267;22785;-51
2022/04/22 23:06:31;;;;;;;9.30;6.50;;;22.40;59.70;;;;;;220773;1267;24222;-54
2022/04/22 23:11:34;;;;;;;12.50;6.10;;;22.40;59.70;;;;;;220588;1266;25636;-57
2022/04/22 23:16:45;;;;;;;13.00;7.00;;;22.40;59.60;;;;;;220516;1267;22523;-55
2022/04/22 23:21:49;;;;;;;9.50;6.60;;;22.30;59.60;;;;;;220774;1267;25216;-53
2022/04/22 23:26:52;;;;;;;10.50;6.60;;;22.30;59.50;;;;;;220218;1267;22745;-52
2022/04/22 23:31:56;;;;;;;9.50;6.70;;;22.20;59.40;;;;;;220204;1267;24304;-52
2022/04/22 23:37:03;;;;;;;11.00;7.10;;;22.30;59.50;;;;;;220621;1267;24457;-55
2022/04/22 23:42:07;;;;;;;11.50;6.60;;;22.20;59.50;;;;;;220474;1268;24425;-54
2022/04/22 23:47:12;;;;;;;9.00;6.40;;;22.20;59.60;;;;;;220904;1267;25214;-52
2022/04/22 23:52:16;;;;;;;10.10;6.30;;;22.20;60.10;;;;;;220391;1270;26632;-54
2022/04/22 23:57:19;;;;;;;10.70;6.80;;;22.10;60.00;;;;;;220596;1270;23996;-53
